sensor_id;sensor_type;location;lat;lon;timestamp;pressure;altitude;pressure_sealevel;temperature;humidity
78665;BME280;67981;51.022;-2.870;2023-10-31T00:01:05;99276.59;;;10.05;100.00
78665;BME280;67981;51.022;-2.870;2023-10-31T00:03:31;99267.09;;;9.95;100.00
78665;BME280;67981;51.022;-2.870;2023-10-31T00:05:57;99280.03;;;10.00;100.00
78665;BME280;67981;51.022;-2.870;2023-10-31T00:08:22;99286.03;;;10.00;100.00
78665;BME280;67981;51.022;-2.870;2023-10-31T00:10:49;99292.91;;;9.97;100.00
78665;BME280;67981;51.022;-2.870;2023-10-31T00:13:14;99291.13;;;9.91;100.00
78665;BME280;67981;51.022;-2.870;2023-10-31T00:15:40;99292.84;;;9.91;100.00
78665;BME280;67981;51.022;-2.870;2023-10-31T00:18:05;99298.00;;;9.89;100.00
78665;BME280;67981;51.022;-2.870;2023-10-31T00:20:31;99305.69;;;9.82;100.00
78665;BME280;67981;51.022;-2.870;2023-10-31T00:22:56;99307.38;;;9.81;100.00
78665;BME280;67981;51.022;-2.870;2023-10-31T00:25:21;99291.88;;;9.72;100.00
78665;BME280;67981;51.022;-2.870;2023-10-31T00:27:47;99321.19;;;9.89;100.00
78665;BME280;67981;51.022;-2.870;2023-10-31T00:30:12;99321.16;;;9.86;100.00
78665;BME280;67981;51.022;-2.870;2023-10-31T00:32:37;99325.50;;;9.92;100.00
78665;BME280;67981;51.022;-2.870;2023-10-31T00:35:03;99324.63;;;9.87;100.00
78665;BME280;67981;51.022;-2.870;2023-10-31T00:37:29;99334.94;;;9.88;100.00
78665;BME280;67981;51.022;-2.870;2023-10-31T00:39:54;99337.50;;;9.87;100.00
78665;BME280;67981;51.022;-2.870;2023-10-31T00:42:19;99335.72;;;9.80;100.00
78665;BME280;67981;51.022;-2.870;2023-10-31T00:44:45;99336.59;;;9.82;100.00
78665;BME280;67981;51.022;-2.870;2023-10-31T00:47:10;99335.72;;;9.80;100.00
78665;BME280;67981;51.022;-2.870;2023-10-31T00:49:36;99331.44;;;9.79;100.00
78665;BME280;67981;51.022;-2.870;2023-10-31T00:52:01;99342.63;;;9.82;100.00
78665;BME280;67981;51.022;-2.870;2023-10-31T00:54:26;99341.72;;;9.76;100.00
78665;BME280;67981;51.022;-2.870;2023-10-31T00:56:52;99348.53;;;9.68;100.00
78665;BME280;67981;51.022;-2.870;2023-10-31T00:59:17;99354.47;;;9.64;100.00
78665;BME280;67981;51.022;-2.870;2023-10-31T01:01:42;99351.00;;;9.60;100.00
78665;BME280;67981;51.022;-2.870;2023-10-31T01:04:08;99363.13;;;9.69;100.00
78665;BME280;67981;51.022;-2.870;2023-10-31T01:06:40;99361.41;;;9.71;100.00
78665;BME280;67981;51.022;-2.870;2023-10-31T01:09:05;99359.69;;;9.70;100.00
78665;BME280;67981;51.022;-2.870;2023-10-31T01:11:31;99376.03;;;9.76;100.00
78665;BME280;67981;51.022;-2.870;2023-10-31T01:13:56;99379.50;;;9.77;100.00
78665;BME280;67981;51.022;-2.870;2023-10-31T01:16:21;99385.50;;;9.74;100.00
78665;BME280;67981;51.022;-2.870;2023-10-31T01:18:47;99382.88;;;9.73;100.00
78665;BME280;67981;51.022;-2.870;2023-10-31T01:21:12;99384.59;;;9.71;100.00
78665;BME280;67981;51.022;-2.870;2023-10-31T01:23:37;99384.53;;;9.65;100.00
78665;BME280;67981;51.022;-2.870;2023-10-31T01:26:03;99394.00;;;9.67;100.00
78665;BME280;67981;51.022;-2.870;2023-10-31T01:28:28;99393.97;;;9.63;100.00
78665;BME280;67981;51.022;-2.870;2023-10-31T01:30:53;99391.41;;;9.63;100.00
78665;BME280;67981;51.022;-2.870;2023-10-31T01:33:19;99405.09;;;9.59;100.00
78665;BME280;67981;51.022;-2.870;2023-10-31T01:35:44;99407.59;;;9.53;100.00
78665;BME280;67981;51.022;-2.870;2023-10-31T01:38:09;99395.59;;;9.52;100.00
78665;BME280;67981;51.022;-2.870;2023-10-31T01:40:35;99403.34;;;9.53;100.00
78665;BME280;67981;51.022;-2.870;2023-10-31T01:43:01;99406.75;;;9.55;100.00
78665;BME280;67981;51.022;-2.870;2023-10-31T01:45:26;99415.38;;;9.57;100.00
78665;BME280;67981;51.022;-2.870;2023-10-31T01:47:52;99425.69;;;9.60;100.00
78665;BME280;67981;51.022;-2.870;2023-10-31T01:50:17;99422.28;;;9.60;100.00
78665;BME280;67981;51.022;-2.870;2023-10-31T01:52:43;99433.44;;;9.62;100.00
78665;BME280;67981;51.022;-2.870;2023-10-31T01:55:10;99429.19;;;9.64;100.00
78665;BME280;67981;51.022;-2.870;2023-10-31T01:57:35;99429.94;;;9.55;100.00
78665;BME280;67981;51.022;-2.870;2023-10-31T02:00:01;99440.34;;;9.64;100.00
78665;BME280;67981;51.022;-2.870;2023-10-31T02:02:27;99447.28;;;9.73;100.00
78665;BME280;67981;51.022;-2.870;2023-10-31T02:04:53;99455.84;;;9.69;100.00
78665;BME280;67981;51.022;-2.870;2023-10-31T02:07:19;99457.69;;;9.80;100.00
78665;BME280;67981;51.022;-2.870;2023-10-31T02:09:44;99455.84;;;9.67;100.00
78665;BME280;67981;51.022;-2.870;2023-10-31T02:12:09;99448.78;;;9.50;100.00
78665;BME280;67981;51.022;-2.870;2023-10-31T02:14:35;99449.53;;;9.41;100.00
78665;BME280;67981;51.022;-2.870;2023-10-31T02:17:00;99449.47;;;9.32;100.00
78665;BME280;67981;51.022;-2.870;2023-10-31T02:19:26;99454.47;;;9.22;100.00
78665;BME280;67981;51.022;-2.870;2023-10-31T02:21:51;99460.47;;;9.19;100.00
78665;BME280;67981;51.022;-2.870;2023-10-31T02:24:17;99461.22;;;9.11;100.00
78665;BME280;67981;51.022;-2.870;2023-10-31T02:26:42;99462.81;;;9.01;100.00
78665;BME280;67981;51.022;-2.870;2023-10-31T02:29:07;99479.09;;;9.00;100.00
78665;BME280;67981;51.022;-2.870;2023-10-31T02:31:33;99482.44;;;8.93;100.00
78665;BME280;67981;51.022;-2.870;2023-10-31T02:33:58;99483.13;;;8.82;100.00
78665;BME280;67981;51.022;-2.870;2023-10-31T02:36:24;99483.03;;;8.76;100.00
78665;BME280;67981;51.022;-2.870;2023-10-31T02:38:49;99483.84;;;8.73;100.00
78665;BME280;67981;51.022;-2.870;2023-10-31T02:41:15;99480.31;;;8.65;100.00
78665;BME280;67981;51.022;-2.870;2023-10-31T02:43:41;99492.31;;;8.65;100.00
78665;BME280;67981;51.022;-2.870;2023-10-31T02:46:07;99480.94;;;8.50;100.00
78665;BME280;67981;51.022;-2.870;2023-10-31T02:48:33;99480.03;;;8.44;100.00
78665;BME280;67981;51.022;-2.870;2023-10-31T02:51:04;99485.16;;;8.44;100.00
78665;BME280;67981;51.022;-2.870;2023-10-31T02:53:30;99489.34;;;8.37;100.00
78665;BME280;67981;51.022;-2.870;2023-10-31T02:55:55;99475.41;;;8.25;100.00
78665;BME280;67981;51.022;-2.870;2023-10-31T02:58:21;99490.88;;;8.28;100.00
78665;BME280;67981;51.022;-2.870;2023-10-31T03:00:46;99488.16;;;8.20;100.00
78665;BME280;67981;51.022;-2.870;2023-10-31T03:03:12;99488.16;;;8.19;100.00
78665;BME280;67981;51.022;-2.870;2023-10-31T03:05:37;99484.66;;;8.15;100.00
78665;BME280;67981;51.022;-2.870;2023-10-31T03:08:03;99500.06;;;8.14;100.00
78665;BME280;67981;51.022;-2.870;2023-10-31T03:10:28;99500.84;;;8.08;100.00
78665;BME280;67981;51.022;-2.870;2023-10-31T03:12:54;99486.75;;;7.87;100.00
78665;BME280;67981;51.022;-2.870;2023-10-31T03:15:19;99504.06;;;7.97;100.00
78665;BME280;67981;51.022;-2.870;2023-10-31T03:17:45;99491.00;;;7.85;100.00
78665;BME280;67981;51.022;-2.870;2023-10-31T03:20:10;99499.59;;;7.87;100.00
78665;BME280;67981;51.022;-2.870;2023-10-31T03:22:36;99503.00;;;7.86;100.00
78665;BME280;67981;51.022;-2.870;2023-10-31T03:25:01;99507.13;;;7.76;100.00
78665;BME280;67981;51.022;-2.870;2023-10-31T03:27:27;99508.75;;;7.71;100.00
78665;BME280;67981;51.022;-2.870;2023-10-31T03:29:52;99509.47;;;7.66;100.00
78665;BME280;67981;51.022;-2.870;2023-10-31T03:32:17;99522.44;;;7.73;100.00
78665;BME280;67981;51.022;-2.870;2023-10-31T03:34:43;99522.38;;;7.70;100.00
78665;BME280;67981;51.022;-2.870;2023-10-31T03:37:08;99523.16;;;7.65;100.00
78665;BME280;67981;51.022;-2.870;2023-10-31T03:39:33;99519.66;;;7.61;100.00
78665;BME280;67981;51.022;-2.870;2023-10-31T03:41:59;99543.81;;;7.71;100.00
78665;BME280;67981;51.022;-2.870;2023-10-31T03:44:25;99523.09;;;7.60;100.00
78665;BME280;67981;51.022;-2.870;2023-10-31T03:46:50;99535.16;;;7.66;100.00
78665;BME280;67981;51.022;-2.870;2023-10-31T03:49:16;99550.78;;;7.76;100.00
78665;BME280;67981;51.022;-2.870;2023-10-31T03:51:41;99534.16;;;7.59;100.00
78665;BME280;67981;51.022;-2.870;2023-10-31T03:54:07;99531.44;;;7.50;100.00
78665;BME280;67981;51.022;-2.870;2023-10-31T03:56:43;99527.03;;;7.45;100.00
78665;BME280;67981;51.022;-2.870;2023-10-31T03:59:09;99522.66;;;7.39;100.00
78665;BME280;67981;51.022;-2.870;2023-10-31T04:01:34;99530.38;;;7.41;100.00
78665;BME280;67981;51.022;-2.870;2023-10-31T04:04:00;99531.16;;;7.37;100.00
78665;BME280;67981;51.022;-2.870;2023-10-31T04:06:25;99531.97;;;7.34;100.00
78665;BME280;67981;51.022;-2.870;2023-10-31T04:08:51;99529.22;;;7.27;100.00
78665;BME280;67981;51.022;-2.870;2023-10-31T04:11:16;99550.78;;;7.35;100.00
78665;BME280;67981;51.022;-2.870;2023-10-31T04:13:41;99530.03;;;7.24;100.00
78665;BME280;67981;51.022;-2.870;2023-10-31T04:16:07;99539.47;;;7.25;100.00
78665;BME280;67981;51.022;-2.870;2023-10-31T04:18:32;99531.59;;;7.16;100.00
78665;BME280;67981;51.022;-2.870;2023-10-31T04:20:58;99522.06;;;7.10;100.00
78665;BME280;67981;51.022;-2.870;2023-10-31T04:23:23;99538.41;;;7.15;100.00
78665;BME280;67981;51.022;-2.870;2023-10-31T04:25:49;99534.81;;;7.07;100.00
78665;BME280;67981;51.022;-2.870;2023-10-31T04:28:14;99533.03;;;7.03;100.00
78665;BME280;67981;51.022;-2.870;2023-10-31T04:30:40;99533.91;;;7.05;100.00
78665;BME280;67981;51.022;-2.870;2023-10-31T04:33:05;99524.41;;;7.00;100.00
78665;BME280;67981;51.022;-2.870;2023-10-31T04:35:30;99523.56;;;7.01;100.00
78665;BME280;67981;51.022;-2.870;2023-10-31T04:37:56;99529.63;;;7.04;100.00
78665;BME280;67981;51.022;-2.870;2023-10-31T04:40:22;99536.69;;;7.14;100.00
78665;BME280;67981;51.022;-2.870;2023-10-31T04:42:47;99521.31;;;7.16;100.00
78665;BME280;67981;51.022;-2.870;2023-10-31T04:45:13;99544.94;;;7.42;100.00
78665;BME280;67981;51.022;-2.870;2023-10-31T04:47:38;99551.94;;;7.49;100.00
78665;BME280;67981;51.022;-2.870;2023-10-31T04:50:04;99552.78;;;7.49;100.00
78665;BME280;67981;51.022;-2.870;2023-10-31T04:52:29;99558.50;;;7.78;100.00
78665;BME280;67981;51.022;-2.870;2023-10-31T04:54:54;99600.41;;;8.21;100.00
78665;BME280;67981;51.022;-2.870;2023-10-31T04:57:20;99587.31;;;8.08;100.00
78665;BME280;67981;51.022;-2.870;2023-10-31T04:59:45;99605.56;;;8.21;100.00
78665;BME280;67981;51.022;-2.870;2023-10-31T05:02:10;99611.47;;;8.17;100.00
78665;BME280;67981;51.022;-2.870;2023-10-31T05:04:39;99621.78;;;8.19;100.00
78665;BME280;67981;51.022;-2.870;2023-10-31T05:07:05;99622.69;;;8.21;100.00
78665;BME280;67981;51.022;-2.870;2023-10-31T05:09:31;99622.66;;;8.19;100.00
78665;BME280;67981;51.022;-2.870;2023-10-31T05:11:56;99647.38;;;8.14;100.00
78665;BME280;67981;51.022;-2.870;2023-10-31T05:14:22;99669.03;;;8.24;100.00
78665;BME280;67981;51.022;-2.870;2023-10-31T05:16:47;99685.44;;;8.32;100.00
78665;BME280;67981;51.022;-2.870;2023-10-31T05:19:12;99700.22;;;8.42;100.00
78665;BME280;67981;51.022;-2.870;2023-10-31T05:21:38;99703.63;;;8.42;100.00
78665;BME280;67981;51.022;-2.870;2023-10-31T05:24:04;99695.03;;;8.40;100.00
78665;BME280;67981;51.022;-2.870;2023-10-31T05:26:29;99735.66;;;8.58;100.00
78665;BME280;67981;51.022;-2.870;2023-10-31T05:28:55;99727.97;;;8.59;100.00
78665;BME280;67981;51.022;-2.870;2023-10-31T05:31:22;99753.78;;;8.66;100.00
78665;BME280;67981;51.022;-2.870;2023-10-31T05:33:47;99739.94;;;8.59;100.00
78665;BME280;67981;51.022;-2.870;2023-10-31T05:36:20;99730.28;;;8.46;100.00
78665;BME280;67981;51.022;-2.870;2023-10-31T05:38:46;99731.00;;;8.39;100.00
78665;BME280;67981;51.022;-2.870;2023-10-31T05:41:12;99731.00;;;8.39;100.00
78665;BME280;67981;51.022;-2.870;2023-10-31T05:43:37;99736.84;;;8.32;100.00
78665;BME280;67981;51.022;-2.870;2023-10-31T05:46:03;99735.94;;;8.28;100.00
78665;BME280;67981;51.022;-2.870;2023-10-31T05:48:30;99740.19;;;8.28;100.00
78665;BME280;67981;51.022;-2.870;2023-10-31T05:50:56;99748.13;;;8.38;100.00
78665;BME280;67981;51.022;-2.870;2023-10-31T05:53:21;99757.63;;;8.42;100.00
78665;BME280;67981;51.022;-2.870;2023-10-31T05:55:46;99770.66;;;8.51;100.00
78665;BME280;67981;51.022;-2.870;2023-10-31T05:58:12;99777.63;;;8.57;100.00
78665;BME280;67981;51.022;-2.870;2023-10-31T06:00:37;99783.03;;;8.71;100.00
78665;BME280;67981;51.022;-2.870;2023-10-31T06:03:03;99776.25;;;8.74;100.00
78665;BME280;67981;51.022;-2.870;2023-10-31T06:05:28;99795.28;;;8.84;100.00
78665;BME280;67981;51.022;-2.870;2023-10-31T06:07:54;99794.47;;;8.86;100.00
78665;BME280;67981;51.022;-2.870;2023-10-31T06:10:20;99794.56;;;8.91;100.00
78665;BME280;67981;51.022;-2.870;2023-10-31T06:12:46;99804.00;;;8.92;100.00
78665;BME280;67981;51.022;-2.870;2023-10-31T06:15:11;99803.22;;;8.96;100.00
78665;BME280;67981;51.022;-2.870;2023-10-31T06:17:37;99813.59;;;8.99;100.00
78665;BME280;67981;51.022;-2.870;2023-10-31T06:20:02;99805.09;;;9.04;100.00
78665;BME280;67981;51.022;-2.870;2023-10-31T06:22:28;99789.47;;;8.94;100.00
78665;BME280;67981;51.022;-2.870;2023-10-31T06:24:53;99806.03;;;9.09;100.00
78665;BME280;67981;51.022;-2.870;2023-10-31T06:27:19;99780.06;;;8.96;100.00
78665;BME280;67981;51.022;-2.870;2023-10-31T06:29:44;99778.38;;;8.98;100.00
78665;BME280;67981;51.022;-2.870;2023-10-31T06:32:09;99767.97;;;8.90;100.00
78665;BME280;67981;51.022;-2.870;2023-10-31T06:34:35;99770.59;;;8.93;100.00
78665;BME280;67981;51.022;-2.870;2023-10-31T06:37:00;99773.25;;;8.98;100.00
78665;BME280;67981;51.022;-2.870;2023-10-31T06:39:25;99779.31;;;9.01;100.00
78665;BME280;67981;51.022;-2.870;2023-10-31T06:41:54;99773.31;;;9.02;100.00
78665;BME280;67981;51.022;-2.870;2023-10-31T06:44:20;99772.41;;;8.99;100.00
78665;BME280;67981;51.022;-2.870;2023-10-31T06:46:45;99773.94;;;8.89;100.00
78665;BME280;67981;51.022;-2.870;2023-10-31T06:49:11;99764.44;;;8.85;100.00
78665;BME280;67981;51.022;-2.870;2023-10-31T06:51:36;99765.19;;;8.80;100.00
78665;BME280;67981;51.022;-2.870;2023-10-31T06:54:01;99762.41;;;8.68;100.00
78665;BME280;67981;51.022;-2.870;2023-10-31T06:56:27;99758.84;;;8.61;100.00
78665;BME280;67981;51.022;-2.870;2023-10-31T06:58:54;99729.41;;;8.44;100.00
78665;BME280;67981;51.022;-2.870;2023-10-31T07:01:19;99742.25;;;8.44;100.00
78665;BME280;67981;51.022;-2.870;2023-10-31T07:03:44;99753.34;;;8.43;100.00
78665;BME280;67981;51.022;-2.870;2023-10-31T07:06:10;99741.25;;;8.37;100.00
78665;BME280;67981;51.022;-2.870;2023-10-31T07:08:35;99738.50;;;8.28;100.00
78665;BME280;67981;51.022;-2.870;2023-10-31T07:11:00;99737.53;;;8.23;100.00
78665;BME280;67981;51.022;-2.870;2023-10-31T07:13:26;99754.78;;;8.27;100.00
78665;BME280;67981;51.022;-2.870;2023-10-31T07:15:51;99754.88;;;8.33;100.00
78665;BME280;67981;51.022;-2.870;2023-10-31T07:18:16;99754.81;;;8.30;100.00
78665;BME280;67981;51.022;-2.870;2023-10-31T07:20:42;99769.63;;;8.42;100.00
78665;BME280;67981;51.022;-2.870;2023-10-31T07:23:07;99796.63;;;8.65;100.00
78665;BME280;67981;51.022;-2.870;2023-10-31T07:25:33;99803.78;;;8.80;100.00
78665;BME280;67981;51.022;-2.870;2023-10-31T07:27:58;99805.56;;;8.82;100.00
78665;BME280;67981;51.022;-2.870;2023-10-31T07:30:23;99806.50;;;8.87;100.00
78665;BME280;67981;51.022;-2.870;2023-10-31T07:32:49;99812.66;;;8.95;100.00
78665;BME280;67981;51.022;-2.870;2023-10-31T07:35:14;99840.75;;;9.31;100.00
78665;BME280;67981;51.022;-2.870;2023-10-31T07:37:40;99839.06;;;9.33;100.00
78665;BME280;67981;51.022;-2.870;2023-10-31T07:40:05;99806.88;;;9.07;100.00
78665;BME280;67981;51.022;-2.870;2023-10-31T07:42:31;99791.03;;;8.84;100.00
78665;BME280;67981;51.022;-2.870;2023-10-31T07:44:56;99771.03;;;8.70;100.00
78665;BME280;67981;51.022;-2.870;2023-10-31T07:47:21;99752.69;;;8.53;100.00
78665;BME280;67981;51.022;-2.870;2023-10-31T07:49:47;99742.31;;;8.47;100.00
78665;BME280;67981;51.022;-2.870;2023-10-31T07:52:13;99725.00;;;8.38;100.00
78665;BME280;67981;51.022;-2.870;2023-10-31T07:54:39;99719.81;;;8.37;100.00
78665;BME280;67981;51.022;-2.870;2023-10-31T07:57:06;99726.69;;;8.38;100.00
78665;BME280;67981;51.022;-2.870;2023-10-31T07:59:34;99732.75;;;8.41;100.00
78665;BME280;67981;51.022;-2.870;2023-10-31T08:02:00;99723.28;;;8.37;100.00
78665;BME280;67981;51.022;-2.870;2023-10-31T08:04:25;99729.41;;;8.44;100.00
78665;BME280;67981;51.022;-2.870;2023-10-31T08:06:51;99732.03;;;8.47;100.00
78665;BME280;67981;51.022;-2.870;2023-10-31T08:09:16;99726.00;;;8.46;100.00
78665;BME280;67981;51.022;-2.870;2023-10-31T08:11:42;99753.09;;;8.74;100.00
78665;BME280;67981;51.022;-2.870;2023-10-31T08:14:07;99775.72;;;8.93;100.00
78665;BME280;67981;51.022;-2.870;2023-10-31T08:16:32;99786.97;;;8.98;100.00
78665;BME280;67981;51.022;-2.870;2023-10-31T08:18:59;99840.28;;;9.54;100.00
78665;BME280;67981;51.022;-2.870;2023-10-31T08:21:24;99863.25;;;9.93;100.00
78665;BME280;67981;51.022;-2.870;2023-10-31T08:23:49;99888.66;;;10.23;100.00
78665;BME280;67981;51.022;-2.870;2023-10-31T08:26:15;99901.81;;;10.42;100.00
78665;BME280;67981;51.022;-2.870;2023-10-31T08:28:40;99887.28;;;10.50;100.00
78665;BME280;67981;51.022;-2.870;2023-10-31T08:31:06;99874.66;;;10.71;100.00
78665;BME280;67981;51.022;-2.870;2023-10-31T08:33:31;99862.88;;;10.91;100.00
78665;BME280;67981;51.022;-2.870;2023-10-31T08:35:56;99827.72;;;11.02;100.00
78665;BME280;67981;51.022;-2.870;2023-10-31T08:38:22;99794.22;;;11.10;100.00
78665;BME280;67981;51.022;-2.870;2023-10-31T08:40:48;99768.53;;;11.25;100.00
78665;BME280;67981;51.022;-2.870;2023-10-31T08:43:14;99747.13;;;11.38;100.00
78665;BME280;67981;51.022;-2.870;2023-10-31T08:45:39;99714.47;;;11.46;100.00
78665;BME280;67981;51.022;-2.870;2023-10-31T08:48:04;99675.72;;;11.49;100.00
78665;BME280;67981;51.022;-2.870;2023-10-31T08:50:30;99652.59;;;11.66;100.00
78665;BME280;67981;51.022;-2.870;2023-10-31T08:52:55;99617.31;;;11.66;100.00
78665;BME280;67981;51.022;-2.870;2023-10-31T08:55:21;99601.81;;;11.74;100.00
78665;BME280;67981;51.022;-2.870;2023-10-31T08:57:46;99565.53;;;11.56;100.00
78665;BME280;67981;51.022;-2.870;2023-10-31T09:00:12;99555.19;;;11.62;100.00
78665;BME280;67981;51.022;-2.870;2023-10-31T09:02:39;99537.97;;;11.59;100.00
78665;BME280;67981;51.022;-2.870;2023-10-31T09:05:05;99521.59;;;11.59;100.00
78665;BME280;67981;51.022;-2.870;2023-10-31T09:07:30;99530.28;;;11.65;100.00
78665;BME280;67981;51.022;-2.870;2023-10-31T09:09:56;99522.53;;;11.67;100.00
78665;BME280;67981;51.022;-2.870;2023-10-31T09:12:21;99511.34;;;11.71;100.00
78665;BME280;67981;51.022;-2.870;2023-10-31T09:14:47;99509.59;;;11.73;100.00
78665;BME280;67981;51.022;-2.870;2023-10-31T09:17:12;99520.81;;;11.69;100.00
78665;BME280;67981;51.022;-2.870;2023-10-31T09:19:38;99536.31;;;11.75;100.00
78665;BME280;67981;51.022;-2.870;2023-10-31T09:22:03;99535.50;;;11.76;100.00
78665;BME280;67981;51.022;-2.870;2023-10-31T09:24:28;99537.22;;;11.84;100.00
78665;BME280;67981;51.022;-2.870;2023-10-31T09:26:54;99535.50;;;11.94;100.00
78665;BME280;67981;51.022;-2.870;2023-10-31T09:29:20;99519.16;;;12.02;100.00
78665;BME280;67981;51.022;-2.870;2023-10-31T09:31:45;99531.25;;;12.17;100.00
78665;BME280;67981;51.022;-2.870;2023-10-31T09:34:12;99526.94;;;12.23;100.00
78665;BME280;67981;51.022;-2.870;2023-10-31T09:36:39;99521.78;;;12.28;100.00
78665;BME280;67981;51.022;-2.870;2023-10-31T09:39:04;99506.25;;;12.26;100.00
78665;BME280;67981;51.022;-2.870;2023-10-31T09:41:30;99497.63;;;12.26;100.00
78665;BME280;67981;51.022;-2.870;2023-10-31T09:43:57;99488.13;;;12.31;100.00
78665;BME280;67981;51.022;-2.870;2023-10-31T09:46:23;99476.06;;;12.34;100.00
78665;BME280;67981;51.022;-2.870;2023-10-31T09:48:49;99471.75;;;12.36;100.00
78665;BME280;67981;51.022;-2.870;2023-10-31T09:51:14;99457.97;;;12.30;100.00
78665;BME280;67981;51.022;-2.870;2023-10-31T09:53:41;99445.91;;;12.29;100.00
78665;BME280;67981;51.022;-2.870;2023-10-31T09:56:09;99444.16;;;12.26;100.00
78665;BME280;67981;51.022;-2.870;2023-10-31T09:58:35;99443.31;;;12.29;100.00
78665;BME280;67981;51.022;-2.870;2023-10-31T10:01:01;99451.91;;;12.34;100.00
78665;BME280;67981;51.022;-2.870;2023-10-31T10:03:27;99436.41;;;12.35;100.00
78665;BME280;67981;51.022;-2.870;2023-10-31T10:05:52;99428.66;;;12.38;100.00
78665;BME280;67981;51.022;-2.870;2023-10-31T10:08:19;99432.06;;;12.51;100.00
78665;BME280;67981;51.022;-2.870;2023-10-31T10:10:45;99428.59;;;12.67;100.00
78665;BME280;67981;51.022;-2.870;2023-10-31T10:13:10;99422.50;;;12.71;100.00
78665;BME280;67981;51.022;-2.870;2023-10-31T10:15:51;99430.22;;;12.94;100.00
78665;BME280;67981;51.022;-2.870;2023-10-31T10:18:30;99421.56;;;13.05;100.00
78665;BME280;67981;51.022;-2.870;2023-10-31T10:20:57;99399.97;;;13.03;100.00
78665;BME280;67981;51.022;-2.870;2023-10-31T10:23:24;99400.00;;;13.08;100.00
78665;BME280;67981;51.022;-2.870;2023-10-31T10:25:50;99377.50;;;13.10;100.00
78665;BME280;67981;51.022;-2.870;2023-10-31T10:28:15;99375.78;;;13.10;100.00
78665;BME280;67981;51.022;-2.870;2023-10-31T10:30:41;99360.25;;;13.09;100.00
78665;BME280;67981;51.022;-2.870;2023-10-31T10:33:06;99347.34;;;12.94;100.00
78665;BME280;67981;51.022;-2.870;2023-10-31T10:35:31;99342.16;;;12.94;100.00
78665;BME280;67981;51.022;-2.870;2023-10-31T10:37:58;99350.78;;;12.97;100.00
78665;BME280;67981;51.022;-2.870;2023-10-31T10:40:25;99345.59;;;12.99;100.00
78665;BME280;67981;51.022;-2.870;2023-10-31T10:42:56;99334.41;;;13.03;100.00
78665;BME280;67981;51.022;-2.870;2023-10-31T10:45:25;99330.06;;;13.08;100.00
78665;BME280;67981;51.022;-2.870;2023-10-31T10:47:51;99326.50;;;13.25;100.00
78665;BME280;67981;51.022;-2.870;2023-10-31T10:50:21;99324.56;;;13.54;100.00
78665;BME280;67981;51.022;-2.870;2023-10-31T10:55:47;99311.47;;;13.66;100.00
78665;BME280;67981;51.022;-2.870;2023-10-31T10:58:27;99284.03;;;13.44;100.00
78665;BME280;67981;51.022;-2.870;2023-10-31T11:00:58;99275.41;;;13.42;100.00
78665;BME280;67981;51.022;-2.870;2023-10-31T11:03:24;99281.34;;;13.58;100.00
78665;BME280;67981;51.022;-2.870;2023-10-31T11:05:50;99280.84;;;14.09;100.00
78665;BME280;67981;51.022;-2.870;2023-10-31T11:08:16;99268.56;;;14.25;100.00
78665;BME280;67981;51.022;-2.870;2023-10-31T11:10:42;99249.41;;;14.36;100.00
78665;BME280;67981;51.022;-2.870;2023-10-31T11:13:08;99239.69;;;14.52;100.00
78665;BME280;67981;51.022;-2.870;2023-10-31T11:15:34;99214.69;;;14.45;100.00
78665;BME280;67981;51.022;-2.870;2023-10-31T11:18:00;99203.53;;;14.40;100.00
78665;BME280;67981;51.022;-2.870;2023-10-31T11:20:27;99169.09;;;14.27;100.00
78665;BME280;67981;51.022;-2.870;2023-10-31T11:22:55;99161.25;;;14.32;100.00
78665;BME280;67981;51.022;-2.870;2023-10-31T11:25:25;99139.53;;;14.36;100.00
78665;BME280;67981;51.022;-2.870;2023-10-31T11:27:51;99119.47;;;14.47;100.00
78665;BME280;67981;51.022;-2.870;2023-10-31T11:32:51;99065.69;;;14.56;100.00
78665;BME280;67981;51.022;-2.870;2023-10-31T11:35:17;99062.31;;;14.51;100.00
78665;BME280;67981;51.022;-2.870;2023-10-31T11:37:43;99035.78;;;14.33;100.00
78665;BME280;67981;51.022;-2.870;2023-10-31T11:40:22;99015.50;;;13.99;100.00
78665;BME280;67981;51.022;-2.870;2023-10-31T11:42:53;99008.06;;;13.77;100.00
78665;BME280;67981;51.022;-2.870;2023-10-31T11:45:40;99015.22;;;13.57;100.00
78665;BME280;67981;51.022;-2.870;2023-10-31T11:48:13;99011.88;;;13.49;100.00
78665;BME280;67981;51.022;-2.870;2023-10-31T11:50:39;99023.19;;;13.42;100.00
78665;BME280;67981;51.022;-2.870;2023-10-31T11:53:08;99032.56;;;13.52;100.00
78665;BME280;67981;51.022;-2.870;2023-10-31T11:55:40;99041.13;;;13.58;100.00
78665;BME280;67981;51.022;-2.870;2023-10-31T11:58:21;99049.72;;;13.62;100.00
78665;BME280;67981;51.022;-2.870;2023-10-31T12:00:52;99056.50;;;13.73;100.00
78665;BME280;67981;51.022;-2.870;2023-10-31T12:03:20;99057.31;;;13.77;100.00
78665;BME280;67981;51.022;-2.870;2023-10-31T12:08:30;99060.41;;;14.04;100.00
78665;BME280;67981;51.022;-2.870;2023-10-31T12:11:12;99055.22;;;14.03;100.00
78665;BME280;67981;51.022;-2.870;2023-10-31T12:13:52;99039.75;;;13.95;100.00
78665;BME280;67981;51.022;-2.870;2023-10-31T12:16:18;99044.88;;;14.00;100.00
78665;BME280;67981;51.022;-2.870;2023-10-31T12:18:43;99038.84;;;14.01;100.00
78665;BME280;67981;51.022;-2.870;2023-10-31T12:21:09;99038.91;;;13.96;100.00
78665;BME280;67981;51.022;-2.870;2023-10-31T12:23:37;99027.59;;;14.00;100.00
78665;BME280;67981;51.022;-2.870;2023-10-31T12:26:02;99020.69;;;14.01;100.00
78665;BME280;67981;51.022;-2.870;2023-10-31T12:28:28;99014.47;;;14.09;100.00
78665;BME280;67981;51.022;-2.870;2023-10-31T12:30:54;99008.41;;;14.12;100.00
78665;BME280;67981;51.022;-2.870;2023-10-31T12:33:20;99007.44;;;14.19;100.00
78665;BME280;67981;51.022;-2.870;2023-10-31T12:35:47;98990.94;;;14.25;100.00
78665;BME280;67981;51.022;-2.870;2023-10-31T12:38:14;98963.25;;;14.23;100.00
78665;BME280;67981;51.022;-2.870;2023-10-31T12:40:41;98959.78;;;14.26;100.00
78665;BME280;67981;51.022;-2.870;2023-10-31T12:43:08;98955.50;;;14.22;100.00
78665;BME280;67981;51.022;-2.870;2023-10-31T12:45:35;98963.97;;;14.35;100.00
78665;BME280;67981;51.022;-2.870;2023-10-31T12:48:04;98969.88;;;14.43;100.00